createdAt,value
2018-05-26T00:02:21.949Z,90.30
2018-05-26T00:04:49.570Z,90.30
2018-05-26T00:07:17.909Z,90.70
2018-05-26T00:09:45.522Z,90.60
2018-05-26T00:12:13.147Z,90.80
2018-05-26T00:14:40.798Z,90.80
2018-05-26T00:17:08.438Z,90.80
2018-05-26T00:19:36.034Z,90.60
2018-05-26T00:22:03.669Z,90.70
2018-05-26T00:24:31.303Z,91.00
2018-05-26T00:26:58.965Z,90.70
2018-05-26T00:29:26.572Z,90.60
2018-05-26T00:31:54.167Z,90.50
2018-05-26T00:34:21.802Z,90.90
2018-05-26T00:36:49.387Z,90.80
2018-05-26T00:39:17.071Z,91.00
2018-05-26T00:41:44.685Z,90.90
2018-05-26T00:44:12.317Z,91.00
2018-05-26T00:46:39.900Z,90.70
2018-05-26T00:49:07.487Z,91.10
2018-05-26T00:51:35.887Z,91.10
2018-05-26T00:54:03.483Z,91.10
2018-05-26T00:56:31.109Z,91.00
2018-05-26T00:58:58.739Z,91.00
2018-05-26T01:01:26.415Z,91.10
2018-05-26T01:03:54.805Z,91.70
2018-05-26T01:06:22.414Z,91.70
2018-05-26T01:08:50.041Z,91.90
2018-05-26T01:11:20.694Z,91.70
2018-05-26T01:13:50.658Z,91.70
2018-05-26T01:16:21.610Z,91.30
2018-05-26T01:18:51.307Z,91.30
2018-05-26T01:21:21.960Z,91.40
2018-05-26T01:23:55.800Z,91.30
2018-05-26T01:26:26.145Z,91.20
2018-05-26T01:28:55.889Z,91.40
2018-05-26T01:31:30.576Z,92.10
2018-05-26T01:34:00.189Z,92.10
2018-05-26T01:36:30.094Z,92.30
2018-05-26T01:38:59.856Z,92.30
2018-05-26T01:41:30.432Z,92.20
2018-05-26T01:44:01.006Z,92.20
2018-05-26T01:46:31.680Z,92.30
2018-05-26T01:49:01.585Z,92.20
2018-05-26T01:51:31.516Z,92.20
2018-05-26T01:54:01.221Z,92.50
2018-05-26T01:56:30.439Z,92.20
2018-05-26T01:59:00.344Z,92.30
2018-05-26T02:01:29.346Z,92.30
2018-05-26T02:03:57.795Z,92.20
2018-05-26T02:06:26.217Z,92.30
2018-05-26T02:08:57.041Z,92.40
2018-05-26T02:11:27.962Z,92.30
2018-05-26T02:13:57.622Z,92.30
2018-05-26T02:16:27.784Z,92.30
2018-05-26T02:18:57.550Z,92.60
2018-05-26T02:21:28.295Z,92.70
2018-05-26T02:23:58.225Z,92.60
2018-05-26T02:26:28.889Z,92.70
2018-05-26T02:28:59.473Z,92.70
2018-05-26T02:31:29.345Z,92.60
2018-05-26T02:33:59.861Z,92.60
2018-05-26T02:36:29.751Z,92.60
2018-05-26T02:39:00.293Z,92.70
2018-05-26T02:41:30.182Z,92.70
2018-05-26T02:43:59.885Z,92.50
2018-05-26T02:46:30.735Z,92.50
2018-05-26T02:49:01.382Z,92.40
2018-05-26T02:51:31.817Z,92.50
2018-05-26T02:54:01.577Z,92.50
2018-05-26T02:56:31.110Z,92.60
2018-05-26T02:59:01.055Z,92.70
2018-05-26T03:01:33.505Z,92.80
2018-05-26T03:04:02.195Z,93.00
2018-05-26T03:06:37.232Z,93.00
2018-05-26T03:09:12.789Z,93.10
2018-05-26T03:11:47.816Z,93.10
2018-05-26T03:14:23.039Z,93.00
2018-05-26T03:16:55.924Z,93.00
2018-05-26T03:19:26.385Z,92.90
2018-05-26T03:21:57.692Z,92.80
2018-05-26T03:24:27.586Z,92.80
2018-05-26T03:26:58.238Z,93.00
2018-05-26T03:29:28.181Z,93.00
2018-05-26T03:31:58.469Z,92.90
2018-05-26T03:34:28.218Z,92.90
2018-05-26T03:36:57.972Z,93.00
2018-05-26T03:39:27.708Z,92.90
2018-05-26T03:41:57.340Z,93.10
2018-05-26T03:44:27.569Z,93.10
2018-05-26T03:46:57.451Z,93.00
2018-05-26T03:49:26.989Z,93.10
2018-05-26T03:51:56.708Z,93.20
2018-05-26T03:54:52.673Z,93.00
2018-05-26T03:57:46.406Z,93.00
2018-05-26T04:00:17.150Z,93.30
2018-05-26T04:02:46.720Z,93.30
2018-05-26T04:05:16.242Z,93.20
2018-05-26T04:07:45.912Z,93.40
2018-05-26T04:10:15.407Z,93.60
2018-05-26T04:12:44.609Z,93.10
2018-05-26T04:15:12.207Z,93.10
2018-05-26T04:17:39.833Z,92.90
2018-05-26T04:20:07.423Z,93.10
2018-05-26T04:22:35.059Z,93.10
2018-05-26T04:25:03.403Z,92.70
2018-05-26T04:27:31.807Z,92.80
2018-05-26T04:29:59.386Z,92.80
2018-05-26T04:32:27.028Z,92.90
2018-05-26T04:34:54.616Z,93.00
2018-05-26T04:37:22.226Z,92.90
2018-05-26T04:39:50.621Z,92.40
2018-05-26T04:42:18.216Z,92.40
2018-05-26T04:44:46.611Z,92.40
2018-05-26T04:47:14.233Z,92.40
2018-05-26T04:49:41.869Z,92.50
2018-05-26T04:52:10.272Z,92.50
2018-05-26T04:54:37.914Z,92.50
2018-05-26T04:57:05.501Z,92.30
2018-05-26T04:59:33.102Z,92.10
2018-05-26T05:02:00.783Z,92.20
2018-05-26T05:04:29.200Z,92.10
2018-05-26T05:06:56.858Z,92.10
2018-05-26T05:09:24.465Z,92.00
2018-05-26T05:11:52.046Z,92.30
2018-05-26T05:14:20.438Z,91.60
2018-05-26T05:16:48.023Z,91.60
2018-05-26T05:19:15.699Z,91.40
2018-05-26T05:21:43.284Z,91.70
2018-05-26T05:24:10.930Z,91.60
2018-05-26T05:26:38.578Z,91.60
2018-05-26T05:29:06.984Z,91.60
2018-05-26T05:31:34.580Z,91.60
2018-05-26T05:34:02.179Z,91.60
2018-05-26T05:36:29.820Z,91.50
2018-05-26T05:38:57.397Z,91.10
2018-05-26T05:41:25.018Z,90.70
2018-05-26T05:43:52.631Z,90.30
2018-05-26T05:46:20.257Z,90.80
2018-05-26T05:48:47.849Z,91.30
2018-05-26T05:51:15.471Z,91.10
2018-05-26T05:53:43.058Z,90.80
2018-05-26T05:56:11.466Z,90.60
2018-05-26T05:58:39.062Z,90.60
2018-05-26T06:01:06.702Z,90.90
2018-05-26T06:03:34.286Z,91.00
2018-05-26T06:06:01.928Z,90.50
2018-05-26T06:08:29.565Z,90.50
2018-05-26T06:10:57.158Z,89.50
2018-05-26T06:13:24.768Z,89.40
2018-05-26T06:15:53.160Z,90.20
2018-05-26T06:18:20.754Z,90.20
2018-05-26T06:20:48.381Z,89.90
2018-05-26T06:23:16.029Z,88.30
2018-05-26T06:25:44.404Z,89.50
2018-05-26T06:28:12.793Z,89.40
2018-05-26T06:30:40.461Z,89.40
2018-05-26T06:33:08.105Z,88.50
2018-05-26T06:35:36.506Z,88.40
2018-05-26T06:38:04.103Z,88.40
2018-05-26T06:40:31.759Z,88.40
2018-05-26T06:42:59.434Z,87.80
2018-05-26T06:45:27.062Z,87.10
2018-05-26T06:47:54.689Z,87.80
2018-05-26T06:50:23.056Z,88.50
2018-05-26T06:52:50.680Z,88.50
2018-05-26T06:55:18.298Z,87.50
2018-05-26T06:57:45.959Z,86.30
2018-05-26T07:00:13.643Z,86.60
2018-05-26T07:02:41.974Z,86.40
2018-05-26T07:05:09.597Z,86.40
2018-05-26T07:07:37.197Z,86.30
2018-05-26T07:10:05.570Z,85.90
2018-05-26T07:12:33.189Z,85.80
2018-05-26T07:15:00.820Z,86.00
2018-05-26T07:17:28.462Z,85.00
2018-05-26T07:19:56.089Z,85.90
2018-05-26T07:22:23.744Z,85.40
2018-05-26T07:24:51.331Z,85.20
2018-05-26T07:27:18.970Z,84.20
2018-05-26T07:29:46.550Z,84.00
2018-05-26T07:32:14.134Z,85.00
2018-05-26T07:34:41.774Z,84.20
2018-05-26T07:37:09.400Z,83.60
2018-05-26T07:39:37.039Z,83.60
2018-05-26T07:42:04.649Z,83.60
2018-05-26T07:44:32.275Z,83.40
2018-05-26T07:47:00.643Z,81.20
2018-05-26T07:49:28.264Z,81.20
2018-05-26T07:51:55.859Z,79.90
2018-05-26T07:54:23.488Z,79.40
2018-05-26T07:56:51.090Z,80.50
2018-05-26T07:59:18.734Z,82.00
2018-05-26T08:01:47.113Z,81.80
2018-05-26T08:04:14.703Z,81.00
2018-05-26T08:06:43.084Z,80.20
2018-05-26T08:09:11.444Z,79.50
2018-05-26T08:11:39.073Z,79.50
2018-05-26T08:14:06.681Z,81.60
2018-05-26T08:16:35.041Z,78.20
2018-05-26T08:19:02.672Z,78.20
2018-05-26T08:21:30.244Z,78.00
2018-05-26T08:23:57.875Z,77.70
2018-05-26T08:26:25.479Z,78.10
2018-05-26T08:28:53.122Z,73.90
2018-05-26T08:31:20.750Z,76.40
2018-05-26T08:33:48.384Z,75.80
2018-05-26T08:36:16.004Z,75.00
2018-05-26T08:38:43.646Z,72.50
2018-05-26T08:41:11.275Z,71.60
2018-05-26T08:43:39.661Z,75.50
2018-05-26T08:46:08.042Z,72.60
2018-05-26T08:48:36.404Z,70.60
2018-05-26T08:51:04.020Z,70.60
2018-05-26T08:53:31.633Z,67.90
2018-05-26T08:56:00.011Z,67.90
2018-05-26T08:58:27.621Z,67.90
2018-05-26T09:00:55.245Z,68.60
2018-05-26T09:03:23.653Z,68.70
2018-05-26T09:05:51.272Z,68.70
2018-05-26T09:08:18.884Z,69.50
2018-05-26T09:10:46.457Z,66.20
2018-05-26T09:13:14.078Z,65.80
2018-05-26T09:15:42.489Z,62.80
2018-05-26T09:18:10.202Z,62.80
2018-05-26T09:20:38.562Z,61.50
2018-05-26T09:23:06.170Z,61.40
2018-05-26T09:25:33.883Z,62.70
2018-05-26T09:28:01.421Z,62.20
2018-05-26T09:30:29.050Z,62.10
2018-05-26T09:32:57.409Z,62.20
2018-05-26T09:35:24.986Z,62.20
2018-05-26T09:37:53.363Z,57.90
2018-05-26T09:40:21.746Z,57.50
2018-05-26T09:42:50.126Z,58.10
2018-05-26T09:45:18.479Z,58.50
2018-05-26T09:47:46.247Z,58.50
2018-05-26T09:50:13.945Z,58.20
2018-05-26T09:52:41.575Z,57.80
2018-05-26T09:55:09.158Z,58.20
2018-05-26T09:57:36.785Z,59.00
2018-05-26T10:00:04.388Z,57.90
2018-05-26T10:02:31.965Z,59.30
2018-05-26T10:04:59.596Z,58.20
2018-05-26T10:07:27.948Z,60.30
2018-05-26T10:09:55.582Z,60.10
2018-05-26T10:12:23.165Z,60.30
2018-05-26T10:14:50.795Z,58.50
2018-05-26T10:17:19.173Z,59.10
2018-05-26T10:19:46.780Z,59.00
2018-05-26T10:22:14.409Z,58.60
2018-05-26T10:24:42.047Z,58.30
2018-05-26T10:27:09.650Z,58.70
2018-05-26T10:29:37.257Z,59.50
2018-05-26T10:32:05.631Z,60.10
2018-05-26T10:34:34.012Z,58.10
2018-05-26T10:37:02.447Z,58.50
2018-05-26T10:39:30.081Z,58.40
2018-05-26T10:41:57.721Z,56.30
2018-05-26T10:44:25.376Z,56.90
2018-05-26T10:46:53.722Z,57.20
2018-05-26T10:49:21.299Z,57.10
2018-05-26T10:51:48.949Z,57.60
2018-05-26T10:54:16.530Z,57.50
2018-05-26T10:56:44.113Z,57.20
2018-05-26T10:59:12.510Z,54.80
2018-05-26T11:01:40.088Z,54.80
2018-05-26T11:04:07.744Z,54.70
2018-05-26T11:06:47.934Z,55.90
2018-05-26T11:09:15.565Z,55.90
2018-05-26T11:11:43.155Z,54.30
2018-05-26T11:14:10.791Z,53.10
2018-05-26T11:16:38.383Z,53.20
2018-05-26T11:19:06.775Z,54.60
2018-05-26T11:21:35.135Z,54.00
2018-05-26T11:24:02.943Z,54.00
2018-05-26T11:26:30.373Z,55.00
2018-05-26T11:28:58.060Z,54.00
2018-05-26T11:31:25.609Z,54.20
2018-05-26T11:33:53.958Z,53.30
2018-05-26T11:36:21.585Z,53.10
2018-05-26T11:38:49.172Z,54.80
2018-05-26T11:41:16.810Z,51.80
2018-05-26T11:43:44.391Z,51.50
2018-05-26T11:46:11.998Z,51.90
2018-05-26T11:48:40.388Z,51.60
2018-05-26T11:51:07.969Z,51.60
2018-05-26T11:53:35.596Z,56.20
2018-05-26T11:56:04.081Z,51.30
2018-05-26T11:58:32.464Z,50.70
2018-05-26T12:01:00.869Z,50.00
2018-05-26T12:03:28.450Z,50.70
2018-05-26T12:05:56.062Z,52.00
2018-05-26T12:08:24.409Z,51.70
2018-05-26T12:10:52.943Z,51.70
2018-05-26T12:13:21.290Z,52.30
2018-05-26T12:15:48.914Z,52.30
2018-05-26T12:18:16.502Z,55.00
2018-05-26T12:20:44.132Z,50.50
2018-05-26T12:23:11.719Z,51.00
2018-05-26T12:25:39.329Z,53.00
2018-05-26T12:28:06.966Z,53.40
2018-05-26T12:30:35.330Z,51.60
2018-05-26T12:33:02.945Z,51.50
2018-05-26T12:35:30.513Z,50.80
2018-05-26T12:37:58.918Z,51.50
2018-05-26T12:40:26.502Z,51.50
2018-05-26T12:42:54.132Z,51.30
2018-05-26T12:45:21.812Z,53.60
2018-05-26T12:47:49.438Z,52.30
2018-05-26T12:50:17.016Z,53.00
2018-05-26T12:52:44.642Z,50.40
2018-05-26T12:55:12.255Z,51.20
2018-05-26T12:57:39.841Z,49.60
2018-05-26T13:00:08.276Z,51.00
2018-05-26T13:02:35.840Z,50.90
2018-05-26T13:05:03.504Z,49.70
2018-05-26T13:07:31.085Z,52.20
2018-05-26T13:09:58.728Z,49.80
2018-05-26T13:12:26.316Z,49.50
2018-05-26T13:14:53.894Z,50.80
2018-05-26T13:17:22.295Z,52.30
2018-05-26T13:19:49.902Z,52.30
2018-05-26T13:22:17.496Z,53.60
2018-05-26T13:24:45.883Z,49.20
2018-05-26T13:27:14.266Z,51.50
2018-05-26T13:29:42.687Z,51.50
2018-05-26T13:32:10.326Z,51.50
2018-05-26T13:34:37.947Z,49.00
2018-05-26T13:37:05.553Z,49.40
2018-05-26T13:39:33.186Z,49.70
2018-05-26T13:42:01.593Z,49.80
2018-05-26T13:44:29.194Z,49.70
2018-05-26T13:46:56.793Z,49.70
2018-05-26T13:49:25.210Z,49.50
2018-05-26T13:51:52.808Z,49.50
2018-05-26T13:54:21.214Z,48.70
2018-05-26T13:56:49.619Z,50.80
2018-05-26T13:59:17.364Z,50.70
2018-05-26T14:01:44.984Z,49.50
2018-05-26T14:04:12.601Z,49.70
2018-05-26T14:06:40.219Z,50.40
2018-05-26T14:09:07.846Z,50.00
2018-05-26T14:11:35.418Z,50.20
2018-05-26T14:14:03.040Z,49.20
2018-05-26T14:16:30.666Z,48.10
2018-05-26T14:18:58.254Z,51.50
2018-05-26T14:21:26.651Z,48.70
2018-05-26T14:23:54.244Z,48.70
2018-05-26T14:26:21.865Z,48.10
2018-05-26T14:28:49.453Z,48.50
2018-05-26T14:31:17.105Z,47.50
2018-05-26T14:33:44.724Z,47.70
2018-05-26T14:36:12.379Z,47.70
2018-05-26T14:38:39.966Z,47.90
2018-05-26T14:41:08.380Z,48.00
2018-05-26T14:43:36.014Z,47.90
2018-05-26T14:46:03.806Z,47.70
2018-05-26T14:48:31.457Z,48.00
2018-05-26T14:50:59.055Z,47.20
2018-05-26T14:53:26.640Z,47.40
2018-05-26T14:55:54.286Z,49.30
2018-05-26T14:58:21.894Z,47.40
2018-05-26T15:00:49.545Z,47.00
2018-05-26T15:03:17.903Z,47.90
2018-05-26T15:05:46.327Z,47.70
2018-05-26T15:08:13.906Z,47.70
2018-05-26T15:10:41.481Z,47.90
2018-05-26T15:13:09.171Z,47.00
2018-05-26T15:15:36.714Z,46.70
2018-05-26T15:18:04.384Z,47.20
2018-05-26T15:20:32.048Z,45.90
2018-05-26T15:23:00.400Z,46.70
2018-05-26T15:25:27.983Z,46.60
2018-05-26T15:27:55.611Z,47.10
2018-05-26T15:30:23.185Z,45.50
2018-05-26T15:32:50.830Z,45.50
2018-05-26T15:35:18.419Z,45.00
2018-05-26T15:37:46.057Z,45.80
2018-05-26T15:40:14.406Z,45.70
2018-05-26T15:42:42.045Z,45.80
2018-05-26T15:45:10.482Z,47.20
2018-05-26T15:47:38.130Z,47.10
2018-05-26T15:50:05.738Z,44.90
2018-05-26T15:52:33.354Z,44.30
2018-05-26T15:55:00.998Z,46.10
2018-05-26T15:57:29.434Z,44.40
2018-05-26T15:59:57.129Z,44.40
2018-05-26T16:02:25.477Z,45.90
2018-05-26T16:04:53.130Z,45.80
2018-05-26T16:07:20.733Z,45.30
2018-05-26T16:09:48.374Z,44.10
2018-05-26T16:12:15.974Z,44.20
2018-05-26T16:14:43.695Z,44.90
2018-05-26T16:17:11.364Z,45.00
2018-05-26T16:19:39.016Z,45.10
2018-05-26T16:22:06.599Z,43.60
2018-05-26T16:24:34.249Z,43.70
2018-05-26T16:27:02.649Z,43.90
2018-05-26T16:29:31.061Z,43.50
2018-05-26T16:31:58.690Z,43.50
2018-05-26T16:34:26.333Z,43.00
2018-05-26T16:36:53.960Z,44.00
2018-05-26T16:39:22.355Z,42.70
2018-05-26T16:41:49.997Z,42.70
2018-05-26T16:44:17.660Z,43.70
2018-05-26T16:46:45.230Z,42.50
2018-05-26T16:49:12.849Z,41.70
2018-05-26T16:51:40.446Z,41.60
2018-05-26T16:54:08.078Z,40.90
2018-05-26T16:56:35.654Z,40.50
2018-05-26T16:59:03.312Z,40.50
2018-05-26T17:01:30.953Z,41.00
2018-05-26T17:03:59.334Z,41.30
2018-05-26T17:06:27.761Z,41.20
2018-05-26T17:08:55.338Z,41.20
2018-05-26T17:11:22.965Z,42.20
2018-05-26T17:13:50.577Z,41.40
2018-05-26T17:16:18.945Z,40.90
2018-05-26T17:18:46.597Z,40.90
2018-05-26T17:21:14.272Z,41.70
2018-05-26T17:23:41.879Z,42.60
2018-05-26T17:26:09.498Z,41.80
2018-05-26T17:28:37.079Z,42.00
2018-05-26T17:31:05.489Z,43.30
2018-05-26T17:33:33.077Z,43.40
2018-05-26T17:36:00.659Z,43.20
2018-05-26T17:38:28.291Z,44.20
2018-05-26T17:40:55.873Z,45.10
2018-05-26T17:43:23.528Z,46.10
2018-05-26T17:45:51.098Z,46.90
2018-05-26T17:48:18.720Z,48.00
2018-05-26T17:50:46.304Z,47.40
2018-05-26T17:53:13.914Z,47.90
2018-05-26T17:55:42.250Z,50.00
2018-05-26T17:58:09.870Z,50.00
2018-05-26T18:00:37.510Z,49.70
2018-05-26T18:03:05.879Z,50.90
2018-05-26T18:05:33.453Z,50.80
2018-05-26T18:08:01.863Z,51.90
2018-05-26T18:10:29.454Z,51.80
2018-05-26T18:12:57.035Z,51.90
2018-05-26T18:15:26.149Z,53.80
2018-05-26T18:17:53.822Z,53.70
2018-05-26T18:20:24.050Z,55.20
2018-05-26T18:22:51.673Z,55.10
2018-05-26T18:25:19.307Z,55.70
2018-05-26T18:27:46.895Z,56.20
2018-05-26T18:30:14.507Z,56.60
2018-05-26T18:32:42.106Z,56.90
2018-05-26T18:35:09.729Z,57.00
2018-05-26T18:37:37.322Z,57.70
2018-05-26T18:40:04.974Z,57.90
2018-05-26T18:42:32.593Z,58.50
2018-05-26T18:45:00.196Z,58.90
2018-05-26T18:47:27.836Z,60.00
2018-05-26T18:49:55.415Z,59.50
2018-05-26T18:52:23.013Z,59.80
2018-05-26T18:54:50.664Z,60.30
2018-05-26T18:57:18.254Z,60.60
2018-05-26T18:59:46.646Z,61.50
2018-05-26T19:02:14.998Z,61.80
2018-05-26T19:04:42.625Z,61.80
2018-05-26T19:07:10.247Z,62.60
2018-05-26T19:09:38.602Z,63.80
2018-05-26T19:12:06.219Z,63.80
2018-05-26T19:14:33.802Z,65.10
2018-05-26T19:17:01.436Z,66.60
2018-05-26T19:19:29.076Z,67.30
2018-05-26T19:21:56.690Z,68.10
2018-05-26T19:24:24.318Z,69.00
2018-05-26T19:26:51.936Z,69.90
2018-05-26T19:29:19.526Z,70.80
2018-05-26T19:31:47.874Z,71.40
2018-05-26T19:34:16.294Z,72.20
2018-05-26T19:36:43.957Z,72.20
2018-05-26T19:39:11.642Z,72.50
2018-05-26T19:41:39.271Z,73.10
2018-05-26T19:44:06.890Z,73.50
2018-05-26T19:46:34.531Z,74.10
2018-05-26T19:49:02.159Z,74.20
2018-05-26T19:51:29.795Z,74.60
2018-05-26T19:53:57.419Z,74.80
2018-05-26T19:56:25.081Z,75.30
2018-05-26T19:58:52.747Z,75.80
2018-05-26T20:01:20.380Z,76.10
2018-05-26T20:03:50.113Z,75.90
2018-05-26T20:06:17.703Z,76.50
2018-05-26T20:08:45.360Z,76.70
2018-05-26T20:11:12.967Z,76.60
2018-05-26T20:13:41.348Z,75.30
2018-05-26T20:16:09.703Z,75.10
2018-05-26T20:18:38.133Z,75.30
2018-05-26T20:21:06.485Z,75.10
2018-05-26T20:23:34.874Z,76.40
2018-05-26T20:26:02.505Z,76.40
2018-05-26T20:28:30.867Z,76.10
2018-05-26T20:30:58.528Z,75.60
2018-05-26T20:33:26.160Z,76.30
2018-05-26T20:35:53.763Z,76.30
2018-05-26T20:38:21.394Z,76.30
2018-05-26T20:40:48.988Z,76.50
2018-05-26T20:43:16.607Z,77.00
2018-05-26T20:45:44.224Z,77.10
2018-05-26T20:48:12.670Z,78.10
2018-05-26T20:50:40.276Z,78.10
2018-05-26T20:53:07.907Z,78.60
2018-05-26T20:55:35.498Z,78.60
2018-05-26T20:58:03.945Z,78.80
2018-05-26T21:00:31.596Z,78.70
2018-05-26T21:02:59.246Z,78.80
2018-05-26T21:05:26.879Z,79.20
2018-05-26T21:07:54.518Z,80.00
2018-05-26T21:10:22.925Z,81.00
2018-05-26T21:12:50.524Z,81.00
2018-05-26T21:15:18.148Z,81.60
2018-05-26T21:17:45.744Z,81.70
2018-05-26T21:20:13.392Z,81.80
2018-05-26T21:22:40.998Z,82.10
2018-05-26T21:25:08.633Z,82.10
2018-05-26T21:27:36.319Z,82.20
2018-05-26T21:30:03.959Z,82.40
2018-05-26T21:32:31.604Z,82.50
2018-05-26T21:34:59.235Z,82.60
2018-05-26T21:37:26.880Z,82.70
2018-05-26T21:39:54.558Z,83.20
2018-05-26T21:42:22.164Z,83.40
2018-05-26T21:44:49.817Z,83.60
2018-05-26T21:47:17.464Z,83.90
2018-05-26T21:49:45.097Z,83.90
2018-05-26T21:52:13.448Z,84.60
2018-05-26T21:54:41.078Z,84.50
2018-05-26T21:57:08.709Z,84.90
2018-05-26T21:59:37.108Z,85.30
2018-05-26T22:02:04.701Z,85.30
2018-05-26T22:04:32.339Z,85.50
2018-05-26T22:06:59.923Z,85.30
2018-05-26T22:09:27.549Z,85.50
2018-05-26T22:11:55.162Z,85.40
2018-05-26T22:14:22.882Z,85.70
2018-05-26T22:16:50.455Z,85.80
2018-05-26T22:19:18.039Z,85.70
2018-05-26T22:21:45.702Z,85.40
2018-05-26T22:24:13.354Z,85.60
2018-05-26T22:26:41.030Z,85.60
2018-05-26T22:29:08.629Z,84.20
2018-05-26T22:31:37.027Z,82.80
2018-05-26T22:34:04.630Z,82.80
2018-05-26T22:36:32.257Z,82.30
2018-05-26T22:38:59.873Z,82.10
2018-05-26T22:41:27.499Z,82.30
2018-05-26T22:43:55.100Z,82.50
2018-05-26T22:46:22.759Z,83.00
2018-05-26T22:48:51.137Z,82.80
2018-05-26T22:51:18.768Z,82.70
2018-05-26T22:53:46.433Z,83.20
2018-05-26T22:56:14.029Z,83.70
2018-05-26T22:58:42.383Z,82.80
2018-05-26T23:01:10.014Z,82.80
2018-05-26T23:03:37.607Z,83.40
2018-05-26T23:06:05.182Z,83.20
2018-05-26T23:08:32.810Z,83.30
2018-05-26T23:11:00.437Z,83.30
2018-05-26T23:13:28.010Z,83.30
2018-05-26T23:15:55.610Z,83.40
2018-05-26T23:18:23.251Z,84.00
2018-05-26T23:20:50.844Z,83.90
2018-05-26T23:23:18.433Z,84.30
2018-05-26T23:25:46.821Z,84.80
2018-05-26T23:28:14.453Z,84.80
2018-05-26T23:30:42.065Z,85.40
2018-05-26T23:33:09.686Z,86.10
2018-05-26T23:35:38.079Z,87.80
2018-05-26T23:38:06.451Z,87.90
2018-05-26T23:40:34.798Z,88.30
2018-05-26T23:43:02.456Z,88.20
2018-05-26T23:45:30.054Z,88.40
2018-05-26T23:47:58.454Z,88.70
2018-05-26T23:50:26.082Z,88.70
2018-05-26T23:52:53.655Z,88.70
2018-05-26T23:55:22.010Z,88.50
2018-05-26T23:57:49.631Z,88.50
